Irvona, PA (16656)

7:44 AM EDT on July 12, 2014 (GMT -0400)
Clearfield-Lawrence (KFIG) Elev 1516 ft | 41.05 °N, 78.41 °W | Change Station

Current weather conditions updated 50 minutes ago

Mostly Cloudy
Mostly Cloudy
60 °F
Feels Like 60 °F
N
0
Wind Variable Wind from North

Today is forecast to be nearly the same temperature as yesterday.

Today
High -- | Low -- °F
--% Chance of Precip.
Yesterday
High -- | Low -- °F
Precip. -- in
5:53 AM 8:46 PM
Full, 100% visible
Pressure 30.21 in
Visibility 3.0 miles
Clouds Few 4900 ft
Mostly Cloudy 6500 ft
Dew Point 59 °F
Humidity 96%
Rainfall 0.00 in
Snow Depth Not available.
UV 0 out of 12
Pollen 3.50 out of 12
Air Quality Not available.
Flu Activity Sporadic
METAR KFIG 121054Z AUTO 00000KT 3SM BR FEW049 BKN065 16/15 A3023 RMK AO2 SLP229 T01560150

More Conditions Fewer Conditions

Pressure 30.21 in
Visibility 3.0 miles
Clouds Few 4900 ft
Mostly Cloudy 6500 ft
Dew Point 59 °F
Humidity 96%
Rainfall 0.00 in
Snow Depth Not available.
UV 0 out of 12
Pollen 3.50 out of 12
Air Quality Not available.
Flu Activity Sporadic
METAR KFIG 121054Z AUTO 00000KT 3SM BR FEW049 BKN065 16/15 A3023 RMK AO2 SLP229 T01560150

More Conditions Fewer Conditions

10-Day Weather Forecast

Almanac

Astronomy

Jul. 12, 2014 Rise Set
Actual Time 5:53 AM EDT 8:46 PM EDT
Civil Twilight 5:20 AM EDT 9:18 PM EDT
Nautical Twilight 4:39 AM EDT 9:59 PM EDT
Astronomical Twilight 3:51 AM EDT 10:47 PM EDT
Moon 8:45 PM EDT 6:11 AM EDT
Length of Visible Light 15h 58m
Length of Day
14h 52m
Tomorrow will be 1m 15s shorter.
Full, 100% of the Moon is Illuminated
Today
Full
Jul 18
Last Quarter
Jul 26
New
Aug 3
First Quarter
Aug 10
Full

Today's Extremes

State Highs State Lows

Community

WunderPhotos

Upload Photos

1,732,784 photos uploaded!

WunderBlogs® & News

Nearby

Snow Depth

Station Depth Elevation
No new snow has been reported.

Earthquake Activity

City Distance Mag. Time & Date
No recent earthquake activity has been reported nearby.
Minimum magnitude displayed is 2.5.

Coastal Water Temperatures

Place Temperature
No Stations Reporting

Nearby Weather Stations

Station Location Temp. Dew Point Humidity Wind Precip. Elev Updated Type
Tyrone, Tyrone, PA 62.9 °F 63 °F 99% WNW  at  0.0 mph 0.00 in / hr 1138 ft 7:41 AM EDT Normal
RAWS KENNEDY PRESERVE PA, Penfield, PA 63 °F 61 °F 94% SSW  at  4 mph 0.00 in / hr 2121 ft 7:08 AM EDT MADIS
NE Altoona-Broadway, Altoona, PA 64.9 °F 65 °F 99% North  at  0.0 mph - / hr 1188 ft 7:38 AM EDT Normal
Colver, Colver Streets, PA 66.3 °F 61 °F 82% ESE  at  0.0 mph 0.00 in / hr 2149 ft 7:32 AM EDT Normal
West End, Punxsutawney, PA 61.5 °F 60 °F 93% North  at  0.0 mph 0.00 in / hr 1279 ft 7:44 AM EDT Rapid Fire
Spring Mount, Warriors Mark, PA 67.6 °F 65 °F 92% SSW  at  0.0 mph 0.00 in / hr 1325 ft 7:44 AM EDT Rapid Fire

Show More Stations Show Fewer Stations